createdAt,value
2023-05-11T00:00:29.039Z,53.32
2023-05-11T00:03:03.781Z,53.01
2023-05-11T00:05:35.747Z,52.87
2023-05-11T00:08:07.735Z,52.77
2023-05-11T00:10:39.584Z,52.93
2023-05-11T00:13:11.518Z,52.46
2023-05-11T00:15:43.436Z,52.69
2023-05-11T00:18:15.399Z,52.68
2023-05-11T00:20:47.224Z,52.66
2023-05-11T00:23:19.099Z,52.80
2023-05-11T00:25:53.500Z,53.03
2023-05-11T00:28:26.030Z,53.01
2023-05-11T00:30:58.547Z,53.16
2023-05-11T00:33:32.556Z,53.48
2023-05-11T00:36:08.706Z,52.92
2023-05-11T00:38:41.430Z,53.21
2023-05-11T00:41:13.351Z,52.77
2023-05-11T00:43:50.362Z,52.68
2023-05-11T00:46:22.378Z,52.84
2023-05-11T00:48:58.290Z,52.65
2023-05-11T00:51:32.700Z,52.55
2023-05-11T00:54:04.557Z,52.79
2023-05-11T00:56:39.098Z,53.02
2023-05-11T00:59:11.459Z,53.06
2023-05-11T01:01:43.437Z,53.51
2023-05-11T01:04:18.040Z,53.50
2023-05-11T01:07:01.210Z,53.38
2023-05-11T01:09:39.245Z,53.89
2023-05-11T01:12:46.264Z,53.69
2023-05-11T01:15:30.696Z,53.74
2023-05-11T01:18:27.260Z,53.87
2023-05-11T01:21:02.618Z,53.65
2023-05-11T01:23:35.712Z,53.52
2023-05-11T01:26:36.941Z,53.50
2023-05-11T01:29:26.795Z,53.39
2023-05-11T01:32:02.764Z,53.73
2023-05-11T01:34:39.536Z,53.69
2023-05-11T01:37:19.786Z,53.74
2023-05-11T01:39:59.328Z,53.81
2023-05-11T01:42:36.549Z,53.51
2023-05-11T01:45:10.837Z,53.60
2023-05-11T01:47:45.303Z,53.83
2023-05-11T01:50:21.984Z,54.12
2023-05-11T01:52:57.335Z,53.83
2023-05-11T01:55:38.555Z,53.84
2023-05-11T01:58:14.222Z,53.61
2023-05-11T02:00:47.617Z,53.67
2023-05-11T02:03:22.983Z,53.86
2023-05-11T02:05:57.161Z,53.99
2023-05-11T02:08:30.241Z,53.60
2023-05-11T02:11:04.149Z,53.60
2023-05-11T02:13:40.976Z,54.57
2023-05-11T02:16:14.965Z,54.32
2023-05-11T02:18:51.066Z,54.16
2023-05-11T02:21:26.418Z,54.56
2023-05-11T02:24:00.481Z,54.27
2023-05-11T02:26:32.677Z,54.25
2023-05-11T02:29:06.940Z,54.50
2023-05-11T02:31:44.376Z,54.54
2023-05-11T02:34:27.495Z,54.22
2023-05-11T02:37:15.500Z,54.35
2023-05-11T02:39:52.916Z,54.60
2023-05-11T02:42:27.621Z,54.56
2023-05-11T02:45:05.245Z,54.66
2023-05-11T02:47:54.089Z,54.63
2023-05-11T02:50:33.738Z,55.46
2023-05-11T02:53:17.587Z,55.00
2023-05-11T02:55:51.319Z,55.02
2023-05-11T02:58:24.291Z,54.73
2023-05-11T03:01:07.549Z,54.98
2023-05-11T03:03:39.849Z,55.04
2023-05-11T03:06:12.462Z,54.66
2023-05-11T03:08:44.436Z,54.54
2023-05-11T03:11:18.356Z,55.04
2023-05-11T03:13:53.143Z,55.27
2023-05-11T03:16:26.958Z,54.82
2023-05-11T03:19:01.872Z,54.98
2023-05-11T03:21:38.891Z,54.65
2023-05-11T03:24:12.085Z,54.82
2023-05-11T03:26:48.345Z,54.99
2023-05-11T03:29:21.153Z,54.78
2023-05-11T03:31:54.907Z,54.86
2023-05-11T03:34:27.923Z,54.69
2023-05-11T03:37:01.213Z,54.37
2023-05-11T03:39:37.071Z,54.50
2023-05-11T03:42:13.969Z,54.57
2023-05-11T03:44:50.743Z,54.75
2023-05-11T03:47:23.136Z,54.67
2023-05-11T03:49:56.277Z,54.75
2023-05-11T03:52:30.741Z,54.63
2023-05-11T03:55:06.381Z,54.65
2023-05-11T03:57:41.783Z,54.60
2023-05-11T04:00:13.872Z,54.74
2023-05-11T04:02:51.173Z,54.59
2023-05-11T04:05:26.272Z,54.48
2023-05-11T04:07:58.580Z,54.52
2023-05-11T04:10:33.675Z,54.26
2023-05-11T04:13:05.668Z,54.47
2023-05-11T04:15:41.942Z,54.47
2023-05-11T04:18:15.702Z,54.01
2023-05-11T04:20:47.522Z,54.04
2023-05-11T04:23:19.233Z,53.86
2023-05-11T04:25:54.821Z,53.91
2023-05-11T04:28:29.624Z,53.92
2023-05-11T04:31:01.684Z,53.86
2023-05-11T04:33:35.057Z,53.28
2023-05-11T04:36:07.271Z,53.27
2023-05-11T04:38:42.403Z,53.80
2023-05-11T04:41:15.999Z,53.22
2023-05-11T04:43:50.728Z,53.32
2023-05-11T04:46:23.606Z,52.10
2023-05-11T04:48:58.408Z,52.20
2023-05-11T04:51:31.934Z,52.07
2023-05-11T04:54:05.017Z,51.54
2023-05-11T04:56:40.572Z,51.50
2023-05-11T04:59:12.880Z,51.50
2023-05-11T05:01:47.663Z,51.30
2023-05-11T05:04:19.591Z,51.24
2023-05-11T05:07:01.524Z,51.01
2023-05-11T05:09:34.924Z,51.21
2023-05-11T05:12:06.991Z,50.81
2023-05-11T05:14:40.838Z,50.51
2023-05-11T05:17:12.737Z,50.59
2023-05-11T05:19:45.684Z,50.56
2023-05-11T05:22:19.670Z,50.48
2023-05-11T05:24:53.770Z,50.19
2023-05-11T05:27:28.793Z,50.05
2023-05-11T05:30:01.797Z,50.15
2023-05-11T05:32:35.434Z,50.23
2023-05-11T05:35:07.742Z,49.83
2023-05-11T05:37:42.514Z,49.64
2023-05-11T05:40:15.092Z,49.54
2023-05-11T05:42:51.653Z,49.58
2023-05-11T05:45:27.738Z,49.59
2023-05-11T05:48:03.029Z,49.52
2023-05-11T05:50:36.235Z,49.15
2023-05-11T05:53:08.096Z,48.56
2023-05-11T05:55:40.999Z,48.14
2023-05-11T05:58:16.848Z,47.95
2023-05-11T06:00:49.515Z,48.18
2023-05-11T06:03:21.849Z,47.96
2023-05-11T06:05:53.838Z,47.71
2023-05-11T06:08:25.701Z,47.25
2023-05-11T06:10:57.578Z,46.87
2023-05-11T06:13:31.605Z,46.71
2023-05-11T06:16:05.582Z,45.97
2023-05-11T06:18:39.370Z,45.45
2023-05-11T06:21:12.738Z,45.54
2023-05-11T06:23:44.680Z,45.40
2023-05-11T06:26:19.271Z,44.99
2023-05-11T06:28:52.779Z,45.17
2023-05-11T06:31:34.638Z,45.37
2023-05-11T06:34:06.659Z,45.32
2023-05-11T06:36:41.875Z,45.87
2023-05-11T06:39:13.846Z,45.72
2023-05-11T06:41:46.032Z,45.67
2023-05-11T06:44:20.454Z,45.85
2023-05-11T06:46:57.128Z,46.53
2023-05-11T06:49:35.027Z,47.14
2023-05-11T06:52:06.908Z,47.37
2023-05-11T06:54:38.730Z,47.52
2023-05-11T06:57:14.566Z,47.85
2023-05-11T06:59:46.956Z,47.59
2023-05-11T07:02:19.024Z,48.02
2023-05-11T07:04:54.810Z,47.83
2023-05-11T07:07:27.062Z,45.14
2023-05-11T07:09:58.917Z,45.67
2023-05-11T07:12:33.462Z,46.15
2023-05-11T07:15:09.087Z,45.38
2023-05-11T07:17:42.342Z,45.48
2023-05-11T07:20:15.725Z,44.62
2023-05-11T07:22:47.657Z,44.09
2023-05-11T07:25:20.712Z,43.63
2023-05-11T07:27:52.798Z,43.18
2023-05-11T07:30:25.739Z,42.73
2023-05-11T07:32:57.898Z,42.21
2023-05-11T07:35:32.765Z,41.58
2023-05-11T07:38:07.837Z,41.43
2023-05-11T07:40:39.765Z,41.45
2023-05-11T07:43:17.302Z,41.63
2023-05-11T07:45:51.803Z,40.82
2023-05-11T07:48:23.642Z,40.45
2023-05-11T07:50:55.737Z,40.15
2023-05-11T07:53:27.632Z,39.47
2023-05-11T07:56:00.860Z,38.91
2023-05-11T07:58:32.962Z,38.19
2023-05-11T08:01:07.873Z,38.27
2023-05-11T08:03:39.867Z,38.29
2023-05-11T08:06:16.876Z,38.09
2023-05-11T08:08:50.960Z,38.29
2023-05-11T08:11:26.503Z,38.20
2023-05-11T08:13:59.505Z,37.95
2023-05-11T08:16:31.694Z,37.59
2023-05-11T08:19:03.714Z,37.97
2023-05-11T08:21:35.879Z,37.91
2023-05-11T08:24:07.834Z,36.95
2023-05-11T08:26:39.782Z,36.84
2023-05-11T08:29:12.594Z,37.16
2023-05-11T08:31:44.920Z,36.72
2023-05-11T08:34:20.142Z,36.67
2023-05-11T08:36:53.301Z,37.20
2023-05-11T08:39:45.422Z,37.22
2023-05-11T08:42:17.791Z,37.19
2023-05-11T08:44:55.924Z,37.27
2023-05-11T08:47:31.918Z,37.08
2023-05-11T08:50:03.982Z,37.27
2023-05-11T08:52:35.894Z,37.21
2023-05-11T08:55:09.269Z,35.48
2023-05-11T08:57:44.405Z,35.00
2023-05-11T09:00:16.777Z,34.55
2023-05-11T09:02:52.644Z,34.98
2023-05-11T09:05:25.980Z,33.65
2023-05-11T09:08:03.305Z,33.80
2023-05-11T09:10:36.861Z,33.36
2023-05-11T09:13:08.703Z,33.16
2023-05-11T09:15:40.959Z,33.67
2023-05-11T09:18:13.451Z,33.80
2023-05-11T09:20:45.388Z,33.70
2023-05-11T09:23:18.098Z,33.91
2023-05-11T09:25:50.336Z,34.57
2023-05-11T09:28:27.015Z,34.93
2023-05-11T09:31:00.707Z,34.42
2023-05-11T09:33:32.573Z,34.24
2023-05-11T09:36:05.498Z,34.00
2023-05-11T09:38:37.677Z,33.24
2023-05-11T09:41:09.718Z,33.20
2023-05-11T09:43:42.273Z,33.07
2023-05-11T09:46:24.322Z,32.72
2023-05-11T09:49:00.684Z,32.79
2023-05-11T09:51:35.026Z,33.24
2023-05-11T09:54:21.161Z,33.22
2023-05-11T09:56:56.712Z,33.29
2023-05-11T09:59:40.009Z,32.31
2023-05-11T10:02:19.790Z,33.01
2023-05-11T10:04:57.287Z,32.60
2023-05-11T10:07:35.896Z,32.86
2023-05-11T10:10:11.182Z,32.98
2023-05-11T10:12:42.922Z,32.49
2023-05-11T10:15:18.213Z,32.40
2023-05-11T10:17:50.415Z,32.44
2023-05-11T10:20:22.494Z,32.29
2023-05-11T10:22:57.600Z,32.68
2023-05-11T10:25:29.423Z,31.68
2023-05-11T10:28:01.349Z,31.77
2023-05-11T10:30:34.527Z,32.09
2023-05-11T10:33:06.716Z,32.62
2023-05-11T10:35:39.180Z,32.68
2023-05-11T10:38:13.300Z,31.83
2023-05-11T10:40:47.148Z,32.26
2023-05-11T10:43:28.335Z,32.59
2023-05-11T10:46:30.582Z,32.56
2023-05-11T10:49:17.760Z,31.19
2023-05-11T10:52:20.729Z,31.65
2023-05-11T10:55:20.549Z,31.55
2023-05-11T10:58:42.158Z,30.50
2023-05-11T11:01:40.237Z,31.05
2023-05-11T11:04:13.630Z,30.92
2023-05-11T11:06:45.511Z,31.84
2023-05-11T11:09:19.614Z,31.87
2023-05-11T11:11:51.644Z,32.12
2023-05-11T11:14:26.296Z,32.63
2023-05-11T11:17:27.852Z,32.96
2023-05-11T11:20:08.614Z,32.53
2023-05-11T11:22:41.863Z,32.19
2023-05-11T11:25:15.977Z,31.12
2023-05-11T11:27:50.854Z,30.86
2023-05-11T11:30:33.345Z,30.03
2023-05-11T11:33:08.171Z,29.07
2023-05-11T11:35:41.635Z,29.31
2023-05-11T11:38:24.179Z,28.09
2023-05-11T11:41:33.367Z,27.93
2023-05-11T11:44:05.640Z,28.10
2023-05-11T11:46:38.966Z,27.17
2023-05-11T11:49:13.865Z,27.27
2023-05-11T11:51:45.727Z,28.06
2023-05-11T11:54:43.020Z,28.48
2023-05-11T11:57:32.931Z,29.15
2023-05-11T12:00:13.507Z,28.54
2023-05-11T12:02:46.300Z,27.75
2023-05-11T12:05:20.158Z,28.00
2023-05-11T12:07:54.187Z,28.65
2023-05-11T12:10:26.210Z,28.33
2023-05-11T12:13:03.813Z,28.32
2023-05-11T12:15:35.577Z,28.01
2023-05-11T12:18:21.088Z,27.86
2023-05-11T12:20:54.182Z,27.51
2023-05-11T12:23:27.371Z,27.76
2023-05-11T12:26:04.684Z,27.43
2023-05-11T12:28:39.623Z,28.00
2023-05-11T12:31:11.363Z,27.47
2023-05-11T12:33:53.939Z,28.08
2023-05-11T12:36:32.004Z,27.30
2023-05-11T12:39:04.922Z,27.63
2023-05-11T12:41:49.225Z,27.67
2023-05-11T12:44:26.508Z,28.02
2023-05-11T12:46:58.757Z,26.87
2023-05-11T12:49:33.601Z,27.80
2023-05-11T12:52:08.124Z,27.40
2023-05-11T12:54:43.447Z,28.44
2023-05-11T12:57:29.111Z,28.96
2023-05-11T13:00:21.871Z,29.67
2023-05-11T13:02:55.390Z,30.28
2023-05-11T13:05:30.871Z,30.53
2023-05-11T13:08:06.849Z,30.88
2023-05-11T13:10:38.562Z,30.71
2023-05-11T13:13:10.396Z,31.35
2023-05-11T13:15:52.258Z,31.39
2023-05-11T13:18:24.505Z,31.32
2023-05-11T13:21:07.591Z,30.67
2023-05-11T13:23:42.320Z,31.16
2023-05-11T13:26:25.217Z,31.04
2023-05-11T13:29:09.461Z,30.30
2023-05-11T13:31:47.458Z,30.51
2023-05-11T13:34:25.281Z,30.75
2023-05-11T13:37:01.130Z,30.14
2023-05-11T13:39:32.885Z,30.29
2023-05-11T13:42:04.778Z,30.18
2023-05-11T13:44:36.888Z,30.17
2023-05-11T13:47:08.664Z,30.88
2023-05-11T13:49:40.477Z,30.89
2023-05-11T13:52:12.214Z,31.51
2023-05-11T13:54:44.002Z,31.60
2023-05-11T13:57:15.840Z,31.73
2023-05-11T13:59:51.042Z,32.25
2023-05-11T14:02:23.050Z,32.50
2023-05-11T14:04:55.927Z,32.21
2023-05-11T14:07:39.017Z,32.23
2023-05-11T14:10:17.828Z,31.95
2023-05-11T14:12:52.534Z,32.58
2023-05-11T14:15:24.361Z,31.99
2023-05-11T14:17:56.223Z,32.33
2023-05-11T14:20:31.661Z,32.99
2023-05-11T14:23:05.034Z,33.25
2023-05-11T14:25:39.906Z,33.59
2023-05-11T14:28:11.606Z,33.55
2023-05-11T14:30:43.547Z,33.31
2023-05-11T14:33:15.424Z,32.68
2023-05-11T14:35:50.121Z,33.47
2023-05-11T14:38:21.967Z,33.54
2023-05-11T14:40:53.698Z,33.33
2023-05-11T14:43:26.316Z,33.43
2023-05-11T14:45:58.132Z,33.58
2023-05-11T14:48:29.924Z,33.65
2023-05-11T14:51:02.513Z,34.04
2023-05-11T14:53:36.293Z,34.77
2023-05-11T14:56:08.240Z,35.33
2023-05-11T14:58:40.053Z,35.50
2023-05-11T15:01:11.863Z,35.42
2023-05-11T15:03:43.720Z,35.54
2023-05-11T15:06:21.280Z,35.75
2023-05-11T15:08:53.098Z,36.01
2023-05-11T15:11:25.271Z,36.16
2023-05-11T15:13:57.116Z,36.11
2023-05-11T15:16:29.040Z,36.49
2023-05-11T15:19:02.213Z,34.57
2023-05-11T15:21:36.964Z,34.01
2023-05-11T15:24:10.838Z,34.02
2023-05-11T15:26:42.901Z,34.39
2023-05-11T15:29:16.598Z,34.19
2023-05-11T15:31:48.496Z,33.43
2023-05-11T15:34:20.773Z,34.16
2023-05-11T15:36:52.564Z,34.26
2023-05-11T15:39:24.339Z,34.41
2023-05-11T15:41:56.113Z,34.46
2023-05-11T15:44:28.514Z,34.99
2023-05-11T15:47:01.518Z,34.96
2023-05-11T15:49:33.593Z,35.12
2023-05-11T15:52:08.717Z,35.12
2023-05-11T15:54:40.485Z,35.53
2023-05-11T15:57:12.310Z,35.11
2023-05-11T15:59:44.237Z,34.72
2023-05-11T16:02:16.101Z,34.88
2023-05-11T16:04:49.183Z,35.09
2023-05-11T16:07:21.125Z,35.20
2023-05-11T16:09:56.091Z,35.12
2023-05-11T16:12:28.142Z,35.80
2023-05-11T16:14:59.810Z,35.82
2023-05-11T16:17:31.630Z,36.07
2023-05-11T16:20:04.603Z,36.24
2023-05-11T16:22:37.265Z,36.23
2023-05-11T16:25:09.355Z,36.43
2023-05-11T16:27:41.104Z,37.04
2023-05-11T16:30:23.284Z,36.98
2023-05-11T16:33:00.164Z,37.01
2023-05-11T16:35:31.968Z,37.13
2023-05-11T16:38:03.876Z,36.90
2023-05-11T16:40:40.639Z,37.15
2023-05-11T16:43:12.551Z,37.18
2023-05-11T16:45:44.660Z,37.32
2023-05-11T16:48:19.338Z,37.01
2023-05-11T16:50:52.384Z,36.54
2023-05-11T16:53:28.290Z,36.26
2023-05-11T16:56:00.122Z,36.34
2023-05-11T16:58:36.747Z,36.24
2023-05-11T17:01:08.543Z,36.81
2023-05-11T17:03:40.594Z,37.03
2023-05-11T17:06:15.020Z,36.76
2023-05-11T17:08:46.988Z,36.40
2023-05-11T17:11:19.010Z,37.08
2023-05-11T17:13:51.446Z,36.43
2023-05-11T17:16:25.263Z,36.44
2023-05-11T17:18:58.984Z,35.78
2023-05-11T17:21:32.408Z,35.38
2023-05-11T17:24:04.282Z,35.39
2023-05-11T17:26:47.053Z,35.19
2023-05-11T17:29:19.389Z,35.31
2023-05-11T17:31:52.336Z,35.02
2023-05-11T17:34:30.419Z,35.13
2023-05-11T17:37:02.397Z,34.76
2023-05-11T17:39:34.313Z,35.44
2023-05-11T17:42:11.502Z,34.78
2023-05-11T17:44:44.561Z,35.46
2023-05-11T17:47:16.341Z,35.26
2023-05-11T17:49:49.258Z,35.67
2023-05-11T17:52:21.157Z,35.72
2023-05-11T17:54:53.319Z,35.77
2023-05-11T17:57:25.677Z,35.70
2023-05-11T17:59:59.391Z,35.24
2023-05-11T18:02:34.668Z,35.52
2023-05-11T18:05:07.233Z,35.60
2023-05-11T18:07:45.252Z,35.53
2023-05-11T18:10:17.381Z,35.92
2023-05-11T18:12:49.338Z,36.04
2023-05-11T18:15:23.730Z,36.16
2023-05-11T18:17:57.545Z,36.42
2023-05-11T18:20:32.277Z,36.41
2023-05-11T18:23:05.012Z,36.58
2023-05-11T18:25:40.657Z,36.63
2023-05-11T18:28:12.561Z,36.98
2023-05-11T18:30:44.320Z,36.95
2023-05-11T18:33:16.360Z,37.21
2023-05-11T18:35:48.334Z,37.19
2023-05-11T18:38:20.130Z,37.26
2023-05-11T18:40:52.933Z,37.35
2023-05-11T18:43:25.271Z,37.55
2023-05-11T18:45:57.118Z,37.80
2023-05-11T18:48:29.011Z,37.79
2023-05-11T18:51:03.450Z,38.11
2023-05-11T18:53:38.955Z,38.14
2023-05-11T18:56:13.674Z,38.33
2023-05-11T18:58:46.462Z,38.53
2023-05-11T19:01:18.784Z,38.66
2023-05-11T19:03:50.736Z,38.97
2023-05-11T19:06:34.385Z,39.14
2023-05-11T19:09:06.078Z,39.42
2023-05-11T19:11:38.009Z,39.46
2023-05-11T19:14:11.791Z,39.52
2023-05-11T19:16:43.680Z,39.89
2023-05-11T19:19:15.429Z,40.09
2023-05-11T19:21:48.918Z,40.37
2023-05-11T19:24:20.728Z,40.56
2023-05-11T19:27:05.967Z,40.83
2023-05-11T19:29:39.271Z,41.07
2023-05-11T19:32:11.309Z,41.51
2023-05-11T19:34:43.110Z,41.41
2023-05-11T19:37:14.868Z,41.51
2023-05-11T19:39:46.572Z,41.88
2023-05-11T19:42:31.870Z,41.90
2023-05-11T19:45:11.602Z,42.01
2023-05-11T19:47:43.857Z,42.01
2023-05-11T19:50:15.650Z,41.99
2023-05-11T19:52:47.740Z,42.11
2023-05-11T19:55:19.472Z,42.55
2023-05-11T19:57:51.548Z,42.22
2023-05-11T20:00:25.355Z,42.53
2023-05-11T20:02:58.047Z,42.75
2023-05-11T20:05:29.874Z,42.86
2023-05-11T20:08:01.739Z,43.00
2023-05-11T20:10:33.892Z,43.00
2023-05-11T20:13:08.098Z,43.58
2023-05-11T20:15:40.111Z,43.52
2023-05-11T20:18:12.223Z,43.60
2023-05-11T20:20:44.247Z,43.58
2023-05-11T20:23:16.605Z,43.36
2023-05-11T20:25:48.551Z,43.32
2023-05-11T20:28:29.250Z,43.31
2023-05-11T20:31:01.213Z,43.42
2023-05-11T20:36:09.375Z,43.64
2023-05-11T20:38:44.008Z,43.67
2023-05-11T20:41:16.002Z,43.81
2023-05-11T20:43:47.767Z,43.87
2023-05-11T20:46:23.791Z,43.90
2023-05-11T20:48:58.855Z,44.10
2023-05-11T20:51:30.590Z,44.39
2023-05-11T20:54:03.598Z,44.51
2023-05-11T20:56:35.471Z,44.80
2023-05-11T21:02:02.763Z,44.92
2023-05-11T21:04:38.960Z,45.00
2023-05-11T21:07:10.779Z,44.82
2023-05-11T21:09:44.572Z,44.75
2023-05-11T21:12:19.111Z,44.81
2023-05-11T21:14:51.890Z,45.14
2023-05-11T21:17:26.797Z,45.10
2023-05-11T21:19:58.555Z,45.21
2023-05-11T21:22:36.029Z,45.22
2023-05-11T21:25:09.297Z,45.35
2023-05-11T21:27:41.788Z,45.53
2023-05-11T21:30:13.652Z,45.75
2023-05-11T21:32:46.367Z,45.72
2023-05-11T21:35:18.673Z,45.64
2023-05-11T21:37:50.687Z,45.76
2023-05-11T21:40:22.689Z,45.99
2023-05-11T21:42:55.898Z,46.30
2023-05-11T21:45:27.684Z,46.28
2023-05-11T21:48:00.309Z,46.46
2023-05-11T21:50:32.695Z,46.49
2023-05-11T21:53:05.179Z,46.78
2023-05-11T21:55:37.086Z,46.92
2023-05-11T21:58:13.304Z,47.59
2023-05-11T22:00:45.724Z,47.56
2023-05-11T22:03:20.661Z,47.80
2023-05-11T22:06:01.620Z,47.97
2023-05-11T22:08:36.660Z,47.61
2023-05-11T22:11:08.503Z,47.39
2023-05-11T22:13:40.276Z,47.92
2023-05-11T22:16:12.323Z,48.11
2023-05-11T22:18:44.094Z,48.01
2023-05-11T22:21:15.961Z,48.19
2023-05-11T22:23:52.159Z,48.10
2023-05-11T22:26:23.959Z,48.27
2023-05-11T22:28:55.779Z,48.45
2023-05-11T22:31:28.001Z,48.25
2023-05-11T22:34:02.777Z,48.48
2023-05-11T22:36:37.340Z,48.65
2023-05-11T22:39:11.693Z,48.69
2023-05-11T22:41:43.541Z,48.70
2023-05-11T22:44:15.514Z,48.67
2023-05-11T22:46:47.238Z,48.69
2023-05-11T22:49:21.977Z,49.03
2023-05-11T22:51:58.521Z,48.97
2023-05-11T22:54:30.474Z,49.34
2023-05-11T22:57:03.711Z,49.36
2023-05-11T22:59:35.572Z,49.48
2023-05-11T23:02:07.464Z,49.52
2023-05-11T23:04:39.209Z,49.42
2023-05-11T23:07:12.964Z,50.02
2023-05-11T23:09:45.188Z,50.36
2023-05-11T23:12:16.959Z,50.68
2023-05-11T23:14:49.622Z,50.19
2023-05-11T23:17:21.668Z,50.30
2023-05-11T23:19:53.640Z,50.40
2023-05-11T23:22:25.460Z,50.14
2023-05-11T23:24:57.280Z,50.21
2023-05-11T23:27:29.771Z,49.83
2023-05-11T23:30:05.489Z,49.88
2023-05-11T23:32:40.540Z,49.70
2023-05-11T23:35:19.492Z,49.75
2023-05-11T23:37:54.362Z,49.45
2023-05-11T23:40:27.368Z,49.63
2023-05-11T23:42:59.468Z,49.72
2023-05-11T23:45:31.471Z,50.06
2023-05-11T23:48:03.727Z,50.25
2023-05-11T23:50:38.260Z,50.44
2023-05-11T23:53:10.079Z,50.18
2023-05-11T23:55:42.961Z,50.17
2023-05-11T23:58:14.923Z,50.17
